Time;durP1;ratioP1;P1;durP2;ratioP2;P2;SDS_P1;SDS_P2;PMS_P1;PMS_P2;Temp;Humidity;BMP_temperature;BMP_pressure;BME280_temperature;BME280_humidity;BME280_pressure;Samples;Min_cycle;Max_cycle;Signal;HPM_P1;HPM_P2
2023/05/28 00:00:10;;;;;;;45.80;16.08;;;14.40;99.90;;;;;;4949513;29;20023;-72
2023/05/28 00:02:36;;;;;;;44.25;16.40;;;14.40;99.90;;;;;;4956164;28;20028;-72
2023/05/28 00:05:03;;;;;;;46.58;16.20;;;14.40;99.90;;;;;;4956394;29;20019;-72
2023/05/28 00:07:28;;;;;;;44.72;16.95;;;14.40;99.90;;;;;;4956017;28;20035;-72
2023/05/28 00:09:58;;;;;;;50.67;16.88;;;14.40;99.90;;;;;;4955990;28;20096;-72
2023/05/28 00:12:24;;;;;;;44.58;16.55;;;14.30;99.90;;;;;;4956053;28;20093;-72
2023/05/28 00:14:50;;;;;;;52.40;17.52;;;14.30;99.90;;;;;;4956258;29;20032;-72
2023/05/28 00:17:16;;;;;;;43.92;16.42;;;14.30;99.90;;;;;;4955913;28;20587;-72
2023/05/28 00:19:43;;;;;;;45.50;16.85;;;14.30;99.90;;;;;;4955174;28;20154;-72
2023/05/28 00:22:08;;;;;;;38.10;16.33;;;14.30;99.90;;;;;;4954608;28;20051;-73
2023/05/28 00:24:34;;;;;;;41.40;15.18;;;14.40;99.90;;;;;;4955334;28;20548;-73
2023/05/28 00:27:00;;;;;;;36.05;15.40;;;14.40;99.90;;;;;;4954506;29;20016;-73
2023/05/28 00:29:26;;;;;;;35.40;14.68;;;14.40;99.90;;;;;;4956043;28;20058;-73
2023/05/28 00:31:55;;;;;;;38.40;15.93;;;14.50;99.90;;;;;;4956761;29;20027;-73
2023/05/28 00:34:21;;;;;;;38.90;14.82;;;14.50;99.90;;;;;;4952163;29;20019;-73
2023/05/28 00:36:47;;;;;;;35.55;15.07;;;14.50;99.90;;;;;;4956355;28;20026;-73
2023/05/28 00:39:15;;;;;;;45.63;16.58;;;14.50;99.90;;;;;;4956581;29;20134;-74
2023/05/28 00:41:40;;;;;;;45.08;16.45;;;14.50;99.90;;;;;;4956641;28;20363;-73
2023/05/28 00:44:08;;;;;;;44.90;16.55;;;14.50;99.90;;;;;;4955794;29;20060;-73
2023/05/28 00:46:35;;;;;;;37.50;14.70;;;14.50;99.90;;;;;;4955760;28;20509;-74
2023/05/28 00:49:01;;;;;;;34.38;14.63;;;14.50;99.90;;;;;;4956323;28;20030;-73
2023/05/28 00:51:27;;;;;;;43.10;15.90;;;14.50;99.90;;;;;;4955505;28;20031;-73
2023/05/28 00:53:53;;;;;;;35.90;15.75;;;14.50;99.90;;;;;;4954132;29;20078;-73
2023/05/28 00:56:19;;;;;;;36.17;15.07;;;14.50;99.90;;;;;;4955472;28;20027;-73
2023/05/28 00:58:48;;;;;;;33.15;14.68;;;14.50;99.90;;;;;;4955353;28;20027;-73
2023/05/28 01:01:13;;;;;;;40.28;15.05;;;14.50;99.90;;;;;;4948308;29;20024;-73
2023/05/28 01:03:39;;;;;;;38.00;14.70;;;14.40;99.90;;;;;;4955079;29;20015;-72
2023/05/28 01:06:11;;;;;;;44.10;15.95;;;14.40;99.90;;;;;;4955421;28;20024;-73
2023/05/28 01:08:38;;;;;;;44.55;15.60;;;14.40;99.90;;;;;;4955144;28;20418;-73
2023/05/28 01:11:09;;;;;;;37.20;14.65;;;14.30;99.90;;;;;;4948881;29;20023;-73
2023/05/28 01:13:36;;;;;;;41.05;14.80;;;14.30;99.90;;;;;;4959401;28;20486;-73
2023/05/28 01:16:02;;;;;;;40.60;15.00;;;14.30;99.90;;;;;;4958302;29;20078;-73
2023/05/28 01:18:27;;;;;;;44.08;15.25;;;14.30;99.90;;;;;;4955345;28;20027;-73
2023/05/28 01:20:53;;;;;;;41.38;15.40;;;14.30;99.90;;;;;;4952710;29;20390;-72
2023/05/28 01:23:20;;;;;;;36.47;15.05;;;14.20;99.90;;;;;;4944757;29;20024;-73
2023/05/28 01:25:51;;;;;;;42.53;14.93;;;14.20;99.90;;;;;;4954893;29;20534;-73
2023/05/28 01:28:16;;;;;;;39.40;15.75;;;14.20;99.90;;;;;;4954813;28;20039;-73
2023/05/28 01:30:45;;;;;;;40.35;15.15;;;14.20;99.90;;;;;;4954683;28;20031;-73
2023/05/28 01:33:11;;;;;;;42.20;16.40;;;14.10;99.90;;;;;;4955067;28;20031;-74
2023/05/28 01:35:41;;;;;;;46.20;15.68;;;14.00;99.90;;;;;;4947337;28;20019;-73
2023/05/28 01:38:08;;;;;;;48.53;16.30;;;14.00;99.90;;;;;;4946358;28;20025;-73
2023/05/28 01:40:36;;;;;;;39.20;15.70;;;13.90;99.90;;;;;;4954710;29;20059;-73
2023/05/28 01:43:02;;;;;;;43.70;16.55;;;13.90;99.90;;;;;;4954180;29;20384;-72
2023/05/28 01:45:29;;;;;;;44.50;17.15;;;13.80;99.90;;;;;;4953160;28;20028;-73
2023/05/28 01:47:55;;;;;;;46.85;16.80;;;13.60;99.90;;;;;;4951962;28;20103;-74
2023/05/28 01:50:21;;;;;;;45.80;16.85;;;13.60;99.90;;;;;;4954350;28;20098;-73
2023/05/28 01:52:46;;;;;;;43.20;16.90;;;13.50;99.90;;;;;;4953265;28;20043;-73
2023/05/28 01:55:13;;;;;;;44.72;16.45;;;13.50;99.90;;;;;;4954780;29;20110;-73
2023/05/28 01:57:39;;;;;;;43.65;16.98;;;13.50;99.90;;;;;;4951426;28;20526;-73
2023/05/28 02:00:10;;;;;;;39.55;16.13;;;13.40;99.90;;;;;;4951622;29;20102;-73
2023/05/28 02:02:36;;;;;;;41.80;15.88;;;13.40;99.90;;;;;;4954485;28;20027;-73
2023/05/28 02:05:02;;;;;;;47.80;16.73;;;13.40;99.90;;;;;;4954309;29;20106;-73
2023/05/28 02:07:27;;;;;;;44.17;16.40;;;13.50;99.90;;;;;;4954275;28;20027;-74
2023/05/28 02:09:53;;;;;;;42.25;16.85;;;13.40;99.90;;;;;;4942978;29;20048;-73
2023/05/28 02:12:19;;;;;;;45.88;16.55;;;13.40;99.90;;;;;;4952357;29;20027;-73
2023/05/28 02:14:45;;;;;;;44.90;16.40;;;13.40;99.90;;;;;;4953114;29;20027;-73
2023/05/28 02:17:12;;;;;;;45.00;17.00;;;13.30;99.90;;;;;;4954144;28;20031;-73
2023/05/28 02:19:37;;;;;;;42.67;17.08;;;13.40;99.90;;;;;;4954126;28;20441;-73
2023/05/28 02:22:11;;;;;;;41.50;16.13;;;13.30;99.90;;;;;;4940633;28;20027;-73
2023/05/28 02:24:40;;;;;;;39.40;15.85;;;13.30;99.90;;;;;;4952980;29;20038;-72
2023/05/28 02:27:06;;;;;;;41.55;16.33;;;13.30;99.90;;;;;;4953746;28;20027;-73
2023/05/28 02:29:32;;;;;;;45.03;16.65;;;13.30;99.90;;;;;;4954033;28;20023;-73
2023/05/28 02:31:58;;;;;;;45.20;15.63;;;13.30;99.90;;;;;;4953980;29;20073;-73
2023/05/28 02:34:23;;;;;;;43.20;16.73;;;13.30;99.90;;;;;;4954048;29;20405;-73
2023/05/28 02:36:52;;;;;;;44.72;16.90;;;13.30;99.90;;;;;;4953640;28;20188;-73
2023/05/28 02:39:18;;;;;;;33.97;15.30;;;13.30;99.90;;;;;;4953428;29;20199;-73
2023/05/28 02:41:43;;;;;;;44.80;16.35;;;13.30;99.90;;;;;;4951786;28;20035;-73
2023/05/28 02:44:09;;;;;;;45.92;16.17;;;13.30;99.90;;;;;;4947439;28;20016;-72
2023/05/28 02:46:35;;;;;;;40.78;16.90;;;13.20;99.90;;;;;;4947364;29;20063;-73
2023/05/28 02:49:00;;;;;;;44.53;17.65;;;13.10;99.90;;;;;;4951256;28;20461;-71
2023/05/28 02:51:26;;;;;;;47.58;17.38;;;13.10;99.90;;;;;;4953718;28;20038;-73
2023/05/28 02:53:51;;;;;;;44.45;16.25;;;13.10;99.90;;;;;;4953548;29;20462;-73
2023/05/28 02:56:17;;;;;;;43.22;16.85;;;13.00;99.90;;;;;;4953409;29;20026;-73
2023/05/28 02:58:43;;;;;;;39.00;17.30;;;12.90;99.90;;;;;;4953555;28;20131;-73
2023/05/28 03:01:08;;;;;;;47.58;16.88;;;12.90;99.90;;;;;;4953263;29;20034;-73
2023/05/28 03:03:34;;;;;;;45.78;16.88;;;12.90;99.90;;;;;;4951998;28;20038;-73
2023/05/28 03:06:00;;;;;;;51.75;18.13;;;12.90;99.90;;;;;;4944323;29;20106;-72
2023/05/28 03:08:26;;;;;;;43.25;17.58;;;12.80;99.90;;;;;;4953307;28;20043;-73
2023/05/28 03:10:51;;;;;;;52.80;18.20;;;12.90;99.90;;;;;;4953080;28;20102;-73
2023/05/28 03:13:17;;;;;;;44.95;16.25;;;12.90;99.90;;;;;;4953120;28;20030;-73
2023/05/28 03:15:42;;;;;;;46.13;17.35;;;12.90;99.90;;;;;;4953218;28;20023;-73
2023/05/28 03:18:08;;;;;;;45.83;16.77;;;12.90;99.90;;;;;;4953513;29;20035;-73
2023/05/28 03:20:33;;;;;;;40.10;16.40;;;12.90;99.90;;;;;;4953106;28;20055;-73
2023/05/28 03:22:59;;;;;;;39.13;15.70;;;12.90;99.90;;;;;;4953430;28;20526;-72
2023/05/28 03:25:26;;;;;;;36.65;15.65;;;12.90;99.90;;;;;;4953153;29;20023;-72
2023/05/28 03:27:53;;;;;;;45.08;17.40;;;12.90;99.90;;;;;;4947603;28;20098;-73
2023/05/28 03:30:18;;;;;;;53.55;17.13;;;12.80;99.90;;;;;;4953176;28;20035;-73
2023/05/28 03:32:44;;;;;;;48.90;17.15;;;12.80;99.90;;;;;;4953182;29;20027;-73
2023/05/28 03:35:10;;;;;;;41.97;17.10;;;12.80;99.90;;;;;;4953242;28;20028;-73
2023/05/28 03:37:35;;;;;;;46.63;16.92;;;12.80;99.90;;;;;;4953119;28;20431;-73
2023/05/28 03:40:04;;;;;;;42.45;16.83;;;12.80;99.90;;;;;;4948696;28;20479;-73
2023/05/28 03:42:29;;;;;;;43.00;16.73;;;12.80;99.90;;;;;;4935548;29;20024;-73
2023/05/28 03:44:55;;;;;;;35.65;16.75;;;12.80;99.90;;;;;;4939755;29;20082;-73
2023/05/28 03:47:21;;;;;;;41.90;15.90;;;12.80;99.90;;;;;;4953117;28;20035;-73
2023/05/28 03:49:47;;;;;;;44.28;17.55;;;12.80;99.90;;;;;;4950844;28;20054;-73
2023/05/28 03:52:12;;;;;;;38.72;16.52;;;12.70;99.90;;;;;;4948776;29;20110;-73
2023/05/28 03:54:38;;;;;;;39.42;16.80;;;12.80;99.90;;;;;;4953286;29;20039;-72
2023/05/28 03:57:04;;;;;;;45.35;17.10;;;12.80;99.90;;;;;;4944178;28;20103;-73
2023/05/28 03:59:29;;;;;;;41.15;15.77;;;12.80;99.90;;;;;;4944925;29;20028;-73
2023/05/28 04:01:55;;;;;;;35.20;14.63;;;12.90;99.90;;;;;;4952796;29;20109;-73
2023/05/28 04:04:21;;;;;;;38.25;15.85;;;12.90;99.90;;;;;;4946907;29;20023;-73
2023/05/28 04:06:46;;;;;;;42.70;15.77;;;12.90;99.90;;;;;;4942658;29;20027;-73
2023/05/28 04:09:12;;;;;;;39.08;15.20;;;12.90;99.90;;;;;;4944982;29;20034;-73
2023/05/28 04:11:38;;;;;;;36.58;15.43;;;12.90;99.90;;;;;;4956120;29;20031;-73
2023/05/28 04:14:04;;;;;;;43.42;15.13;;;12.90;99.90;;;;;;4956515;28;20098;-73
2023/05/28 04:16:31;;;;;;;34.30;14.38;;;12.90;99.90;;;;;;4953492;28;20023;-73
2023/05/28 04:18:56;;;;;;;35.90;14.43;;;12.90;99.90;;;;;;4955804;28;20526;-73
2023/05/28 04:21:23;;;;;;;37.88;15.82;;;12.90;99.90;;;;;;4956163;28;20110;-73
2023/05/28 04:23:49;;;;;;;43.22;15.85;;;12.80;99.90;;;;;;4955915;28;20460;-73
2023/05/28 04:26:16;;;;;;;37.63;15.80;;;12.80;99.90;;;;;;4949580;28;20024;-72
2023/05/28 04:28:41;;;;;;;44.42;16.27;;;12.70;99.90;;;;;;4956401;28;20023;-73
2023/05/28 04:31:07;;;;;;;39.22;15.48;;;12.70;99.90;;;;;;4955963;29;20406;-73
2023/05/28 04:33:33;;;;;;;49.08;16.00;;;12.70;99.90;;;;;;4955936;28;20031;-73
2023/05/28 04:36:01;;;;;;;37.47;15.15;;;12.70;99.90;;;;;;4953780;28;20536;-73
2023/05/28 04:38:33;;;;;;;32.83;15.20;;;12.70;99.90;;;;;;4946813;29;20488;-73
2023/05/28 04:40:59;;;;;;;42.78;15.27;;;12.70;99.90;;;;;;4952291;28;20043;-73
2023/05/28 04:43:26;;;;;;;38.15;15.60;;;12.80;99.90;;;;;;4955514;29;20023;-73
2023/05/28 04:45:53;;;;;;;40.40;15.40;;;12.80;99.90;;;;;;4955657;28;20020;-74
2023/05/28 04:48:19;;;;;;;40.28;14.48;;;12.80;99.90;;;;;;4955617;29;20454;-73
2023/05/28 04:50:45;;;;;;;39.25;14.45;;;12.90;99.90;;;;;;4952274;28;20068;-74
2023/05/28 04:53:11;;;;;;;37.08;14.50;;;12.90;99.90;;;;;;4951859;29;20079;-73
2023/05/28 04:55:37;;;;;;;38.83;14.50;;;12.90;99.90;;;;;;4947296;28;20023;-73
2023/05/28 04:58:02;;;;;;;32.90;13.93;;;12.90;99.90;;;;;;4955429;28;20030;-73
2023/05/28 05:00:30;;;;;;;38.22;14.00;;;13.00;99.90;;;;;;4951676;29;20383;-73
2023/05/28 05:02:55;;;;;;;35.33;13.13;;;13.00;99.90;;;;;;4955335;29;20015;-73
2023/05/28 05:05:21;;;;;;;32.75;14.05;;;13.00;99.90;;;;;;4948999;28;20380;-73
2023/05/28 05:07:47;;;;;;;33.05;13.95;;;13.10;99.90;;;;;;4954951;28;20019;-73
2023/05/28 05:10:13;;;;;;;30.73;12.90;;;13.10;99.90;;;;;;4955058;29;20028;-73
2023/05/28 05:12:39;;;;;;;29.80;13.25;;;13.20;99.90;;;;;;4955091;28;20627;-73
2023/05/28 05:15:05;;;;;;;32.53;13.00;;;13.20;99.90;;;;;;4944554;28;20055;-73
2023/05/28 05:17:31;;;;;;;31.73;12.80;;;13.20;99.90;;;;;;4938883;28;20439;-73
2023/05/28 05:19:58;;;;;;;35.90;12.90;;;13.30;99.90;;;;;;4936773;29;20020;-73
2023/05/28 05:22:24;;;;;;;35.38;12.68;;;13.30;99.90;;;;;;4940648;29;20035;-73
2023/05/28 05:24:49;;;;;;;35.28;12.88;;;13.40;99.90;;;;;;4954062;28;20027;-73
2023/05/28 05:27:15;;;;;;;30.55;12.85;;;13.50;99.90;;;;;;4954670;28;20031;-73
2023/05/28 05:29:41;;;;;;;32.00;12.52;;;13.50;99.90;;;;;;4955568;29;20031;-73
2023/05/28 05:32:09;;;;;;;35.78;13.18;;;13.50;99.90;;;;;;4958639;28;20031;-72
2023/05/28 05:34:35;;;;;;;38.70;13.82;;;13.60;99.90;;;;;;4958416;28;20023;-73
2023/05/28 05:37:00;;;;;;;34.65;12.00;;;13.60;99.90;;;;;;4956881;28;20031;-73
2023/05/28 05:39:26;;;;;;;29.58;11.77;;;13.60;99.90;;;;;;4955031;28;20102;-73
2023/05/28 05:41:52;;;;;;;29.05;12.23;;;13.70;99.90;;;;;;4955029;28;20023;-73
2023/05/28 05:44:18;;;;;;;37.47;14.00;;;13.70;99.90;;;;;;4954114;28;20404;-73
2023/05/28 05:46:43;;;;;;;35.30;12.68;;;13.70;99.90;;;;;;4954072;29;20031;-73
2023/05/28 05:49:09;;;;;;;34.22;12.25;;;13.80;99.90;;;;;;4954066;29;20030;-73
2023/05/28 05:51:35;;;;;;;31.55;12.98;;;13.90;99.90;;;;;;4940954;29;20063;-73
2023/05/28 05:54:01;;;;;;;32.80;12.52;;;13.90;99.90;;;;;;4954452;28;20130;-73
2023/05/28 05:56:27;;;;;;;27.80;11.65;;;14.00;99.90;;;;;;4953309;28;20024;-73
2023/05/28 05:58:53;;;;;;;29.63;11.30;;;14.00;99.90;;;;;;4949405;29;20059;-73
2023/05/28 06:01:20;;;;;;;33.17;12.05;;;14.10;99.90;;;;;;4947429;29;20023;-73
2023/05/28 06:03:46;;;;;;;32.42;12.15;;;14.10;99.90;;;;;;4953747;28;20025;-73
2023/05/28 06:06:12;;;;;;;34.35;11.90;;;14.20;99.90;;;;;;4943940;29;20107;-73
2023/05/28 06:08:39;;;;;;;30.08;11.25;;;14.20;99.90;;;;;;4951664;29;20086;-73
2023/05/28 06:11:05;;;;;;;32.53;12.45;;;14.20;99.90;;;;;;4952813;28;20015;-73
2023/05/28 06:13:31;;;;;;;29.90;12.43;;;14.30;99.90;;;;;;4952118;28;20027;-74
2023/05/28 06:15:57;;;;;;;33.72;12.23;;;14.30;99.90;;;;;;4941121;28;20533;-72
2023/05/28 06:18:23;;;;;;;34.95;13.13;;;14.30;99.90;;;;;;4935169;29;20390;-72
2023/05/28 06:20:49;;;;;;;33.38;12.52;;;14.40;99.90;;;;;;4951673;29;20023;-72
2023/05/28 06:23:16;;;;;;;31.88;11.73;;;14.40;99.90;;;;;;4945592;28;20035;-73
2023/05/28 06:25:43;;;;;;;28.33;11.65;;;14.50;99.90;;;;;;4943547;28;20046;-73
2023/05/28 06:28:09;;;;;;;34.63;12.52;;;14.50;99.90;;;;;;4956230;28;20022;-73
2023/05/28 06:30:35;;;;;;;28.98;11.85;;;14.60;99.90;;;;;;4953678;28;20467;-73
2023/05/28 06:33:01;;;;;;;29.50;12.43;;;14.60;99.90;;;;;;4953890;28;20034;-73
2023/05/28 06:35:27;;;;;;;28.85;11.68;;;14.70;99.90;;;;;;4954468;28;20019;-73
2023/05/28 06:37:52;;;;;;;30.90;12.85;;;14.80;99.90;;;;;;4954986;28;20027;-73
2023/05/28 06:40:18;;;;;;;33.45;12.52;;;14.90;99.90;;;;;;4951413;28;20097;-73
2023/05/28 06:42:44;;;;;;;34.78;12.65;;;15.00;99.90;;;;;;4955022;29;20397;-73
2023/05/28 06:45:10;;;;;;;31.27;11.95;;;15.00;99.90;;;;;;4954121;29;20545;-73
2023/05/28 06:47:36;;;;;;;33.28;12.02;;;15.10;99.90;;;;;;4952545;29;20042;-73
2023/05/28 06:50:02;;;;;;;31.08;12.18;;;15.20;99.90;;;;;;4950949;28;20498;-73
2023/05/28 06:52:28;;;;;;;32.28;11.50;;;15.30;99.90;;;;;;4954149;28;20034;-73
2023/05/28 06:54:53;;;;;;;30.90;10.90;;;15.40;99.90;;;;;;4955232;28;20031;-73
2023/05/28 06:57:20;;;;;;;27.27;11.45;;;15.50;99.90;;;;;;4955379;28;20043;-73
2023/05/28 06:59:46;;;;;;;28.20;10.63;;;15.60;99.90;;;;;;4954795;28;20083;-73
2023/05/28 07:02:11;;;;;;;29.92;11.40;;;15.70;99.90;;;;;;4949998;28;20503;-73
2023/05/28 07:04:37;;;;;;;30.38;10.93;;;15.80;99.90;;;;;;4953828;29;20031;-73
2023/05/28 07:07:03;;;;;;;27.95;9.73;;;16.00;99.90;;;;;;4954130;29;20059;-73
2023/05/28 07:09:29;;;;;;;25.33;10.10;;;16.10;99.90;;;;;;4947874;28;20028;-73
2023/05/28 07:11:55;;;;;;;26.92;10.20;;;16.30;99.90;;;;;;4964165;28;20024;-73
2023/05/28 07:14:21;;;;;;;28.65;9.82;;;16.40;99.90;;;;;;4947691;28;20089;-73
2023/05/28 07:16:46;;;;;;;26.45;9.73;;;16.60;99.90;;;;;;4947999;29;20418;-73
2023/05/28 07:19:12;;;;;;;27.63;9.55;;;16.80;99.90;;;;;;4954908;28;20486;-73
2023/05/28 07:21:38;;;;;;;25.00;8.82;;;16.90;99.90;;;;;;4952988;28;20106;-73
2023/05/28 07:24:05;;;;;;;26.95;9.55;;;17.10;99.90;;;;;;4955493;28;20042;-75
2023/05/28 07:26:31;;;;;;;26.08;8.15;;;17.20;99.90;;;;;;4955193;29;20027;-75
2023/05/28 07:28:57;;;;;;;20.20;8.80;;;17.30;99.90;;;;;;4955407;28;20035;-76
2023/05/28 07:31:22;;;;;;;24.30;8.82;;;17.50;99.90;;;;;;4952307;29;20035;-74
2023/05/28 07:33:49;;;;;;;20.70;8.80;;;17.60;99.90;;;;;;4955279;28;20034;-74
2023/05/28 07:36:15;;;;;;;27.77;9.23;;;17.70;99.90;;;;;;4950284;28;20034;-75
2023/05/28 07:38:42;;;;;;;26.38;9.55;;;17.80;99.90;;;;;;4958930;29;20031;-75
2023/05/28 07:41:08;;;;;;;26.92;9.13;;;18.00;99.90;;;;;;4958761;29;20213;-75
2023/05/28 07:43:33;;;;;;;23.30;9.10;;;18.20;99.90;;;;;;4959293;29;20033;-74
2023/05/28 07:45:59;;;;;;;22.48;9.27;;;18.30;99.90;;;;;;4956606;29;20027;-74
2023/05/28 07:48:25;;;;;;;26.02;9.02;;;18.40;99.90;;;;;;4957936;29;20039;-74
2023/05/28 07:50:51;;;;;;;19.77;9.02;;;18.60;99.90;;;;;;4958470;29;20695;-75
2023/05/28 07:53:17;;;;;;;28.10;8.85;;;18.80;99.90;;;;;;4958852;28;20065;-75
2023/05/28 07:55:43;;;;;;;24.30;8.88;;;18.80;99.90;;;;;;4952408;28;20036;-75
2023/05/28 07:58:11;;;;;;;22.02;8.68;;;19.00;99.90;;;;;;4958821;29;20023;-75
2023/05/28 08:00:37;;;;;;;19.42;7.63;;;19.10;99.90;;;;;;4958902;29;20030;-75
2023/05/28 08:03:03;;;;;;;25.67;8.13;;;19.20;99.90;;;;;;4959122;29;20034;-75
2023/05/28 08:05:29;;;;;;;21.75;8.20;;;19.20;99.90;;;;;;4950164;28;20035;-75
2023/05/28 08:07:55;;;;;;;20.08;8.07;;;19.30;99.90;;;;;;4950988;29;20031;-75
2023/05/28 08:10:20;;;;;;;23.02;8.32;;;19.40;99.90;;;;;;4957909;28;20394;-75
2023/05/28 08:12:46;;;;;;;22.52;7.63;;;19.50;99.90;;;;;;4945287;29;20031;-75
2023/05/28 08:15:12;;;;;;;20.63;7.82;;;19.60;99.90;;;;;;4957850;29;20035;-75
2023/05/28 08:17:37;;;;;;;24.23;8.05;;;19.70;99.90;;;;;;4958055;28;20644;-74
2023/05/28 08:20:04;;;;;;;21.55;7.35;;;19.90;99.90;;;;;;4958111;28;20054;-75
2023/05/28 08:22:30;;;;;;;24.55;7.82;;;20.10;99.90;;;;;;4944123;29;20055;-76
2023/05/28 08:24:56;;;;;;;20.65;7.38;;;20.30;99.90;;;;;;4946558;29;20020;-76
2023/05/28 08:27:21;;;;;;;19.48;7.18;;;20.30;99.90;;;;;;4955408;29;20047;-77
2023/05/28 08:29:47;;;;;;;22.02;7.22;;;20.50;99.90;;;;;;4953319;28;20072;-77
2023/05/28 08:32:13;;;;;;;17.20;6.75;;;20.60;99.90;;;;;;4954537;29;20027;-77
2023/05/28 08:34:39;;;;;;;20.77;6.72;;;20.70;99.90;;;;;;4957294;29;20086;-76
2023/05/28 08:37:06;;;;;;;23.30;7.75;;;20.70;99.90;;;;;;4954699;28;20019;-75
2023/05/28 08:39:32;;;;;;;21.75;7.40;;;20.80;99.90;;;;;;4948628;29;20102;-76
2023/05/28 08:41:58;;;;;;;19.95;7.05;;;20.70;99.90;;;;;;4956903;28;20023;-76
2023/05/28 08:44:23;;;;;;;19.00;6.50;;;20.60;99.90;;;;;;4956908;28;20059;-76
2023/05/28 08:46:50;;;;;;;18.60;6.55;;;20.60;99.90;;;;;;4955798;28;20445;-76
2023/05/28 08:49:17;;;;;;;22.67;7.50;;;20.70;99.90;;;;;;4942341;28;20082;-77
2023/05/28 08:51:47;;;;;;;18.80;6.50;;;20.70;99.90;;;;;;4941791;29;20046;-76
2023/05/28 08:54:13;;;;;;;19.05;6.55;;;20.70;99.90;;;;;;4946677;29;20024;-77
2023/05/28 08:56:40;;;;;;;23.73;6.57;;;20.60;99.90;;;;;;4970062;28;20035;-75
2023/05/28 08:59:10;;;;;;;19.88;6.05;;;20.60;99.90;;;;;;4958400;28;20024;-78
2023/05/28 09:01:37;;;;;;;19.15;6.32;;;20.60;99.90;;;;;;4954427;28;20056;-74
2023/05/28 09:04:03;;;;;;;18.52;6.63;;;20.70;99.90;;;;;;4951587;28;20463;-74
2023/05/28 09:06:31;;;;;;;18.83;6.20;;;20.70;99.90;;;;;;4943254;29;20096;-74
2023/05/28 09:08:57;;;;;;;20.63;6.53;;;20.70;99.90;;;;;;4955334;29;20023;-74
2023/05/28 09:11:23;;;;;;;17.50;6.20;;;20.70;99.90;;;;;;4956637;28;20043;-74
2023/05/28 09:13:49;;;;;;;16.88;6.03;;;20.80;99.90;;;;;;4956032;28;20038;-74
2023/05/28 09:16:22;;;;;;;17.15;6.47;;;20.90;99.90;;;;;;4946708;28;20511;-74
2023/05/28 09:19:02;;;;;;;19.98;7.15;;;21.00;99.90;;;;;;4944370;29;20035;-77
2023/05/28 09:21:27;;;;;;;26.17;6.78;;;21.20;99.90;;;;;;4948457;29;20103;-75
2023/05/28 09:23:53;;;;;;;16.13;6.93;;;21.30;99.90;;;;;;4953992;28;20031;-75
2023/05/28 09:26:22;;;;;;;19.40;7.00;;;21.40;99.90;;;;;;4950335;29;20087;-75
2023/05/28 09:28:51;;;;;;;18.85;7.00;;;21.50;99.90;;;;;;4954274;29;20492;-75
2023/05/28 09:31:18;;;;;;;23.50;6.90;;;21.60;99.90;;;;;;4944150;29;20038;-76
2023/05/28 09:33:47;;;;;;;18.60;6.30;;;21.70;99.90;;;;;;4955622;28;20058;-76
2023/05/28 09:36:17;;;;;;;23.65;6.20;;;21.80;99.90;;;;;;4948872;28;20035;-77
2023/05/28 09:38:43;;;;;;;17.27;5.88;;;21.80;99.90;;;;;;4955125;28;20526;-76
2023/05/28 09:41:19;;;;;;;18.85;6.25;;;21.70;99.90;;;;;;4956745;28;20039;-76
2023/05/28 09:43:46;;;;;;;17.90;6.38;;;21.70;99.90;;;;;;4956641;28;20027;-77
2023/05/28 09:46:11;;;;;;;17.65;6.75;;;21.70;99.90;;;;;;4957246;29;20023;-75
2023/05/28 09:48:38;;;;;;;17.67;6.15;;;21.60;99.90;;;;;;4955456;29;20483;-74
2023/05/28 09:51:07;;;;;;;19.40;6.60;;;21.60;99.90;;;;;;4958293;28;20031;-75
2023/05/28 09:53:36;;;;;;;21.83;6.65;;;21.70;99.90;;;;;;4958765;28;20035;-77
2023/05/28 09:56:03;;;;;;;23.35;6.38;;;21.70;99.90;;;;;;4956034;29;20506;-76
2023/05/28 09:58:34;;;;;;;16.67;6.07;;;21.80;99.90;;;;;;4942595;28;20156;-75
2023/05/28 10:01:10;;;;;;;23.20;6.18;;;21.80;99.90;;;;;;4952829;29;20115;-75
2023/05/28 10:04:07;;;;;;;20.63;6.60;;;21.80;99.90;;;;;;4944281;29;20038;-76
2023/05/28 10:06:35;;;;;;;21.42;6.78;;;21.90;99.90;;;;;;4952254;28;20364;-77
2023/05/28 10:09:02;;;;;;;16.92;5.57;;;22.10;99.90;;;;;;4954953;28;20462;-74
2023/05/28 10:11:34;;;;;;;15.93;6.38;;;22.20;99.90;;;;;;4955324;28;20031;-76
2023/05/28 10:14:02;;;;;;;19.25;6.00;;;22.30;99.90;;;;;;4954905;28;20130;-74
2023/05/28 10:16:28;;;;;;;20.98;6.03;;;22.40;98.60;;;;;;4954562;28;20030;-74
2023/05/28 10:18:56;;;;;;;14.70;6.10;;;22.40;98.60;;;;;;4955706;28;20027;-74
2023/05/28 10:21:22;;;;;;;14.00;5.40;;;22.50;97.70;;;;;;4955601;29;20122;-73
2023/05/28 10:23:48;;;;;;;20.67;6.47;;;22.40;98.10;;;;;;4948243;28;20107;-77
2023/05/28 10:26:15;;;;;;;15.20;5.93;;;22.50;98.10;;;;;;4951559;28;20055;-77
2023/05/28 10:28:41;;;;;;;21.85;6.70;;;22.60;97.70;;;;;;4940756;29;20078;-77
2023/05/28 10:31:08;;;;;;;20.98;6.70;;;22.70;97.20;;;;;;4940831;28;20027;-77
2023/05/28 10:33:44;;;;;;;20.70;6.75;;;22.80;96.90;;;;;;4937504;29;20424;-77
2023/05/28 10:36:14;;;;;;;19.83;6.68;;;23.10;96.40;;;;;;4941184;29;20481;-74
2023/05/28 10:38:52;;;;;;;15.80;6.13;;;23.20;94.60;;;;;;4949732;29;20049;-77
2023/05/28 10:41:22;;;;;;;17.38;6.30;;;23.10;94.00;;;;;;4947366;29;20039;-76
2023/05/28 10:43:51;;;;;;;20.05;6.38;;;23.10;94.00;;;;;;4954253;28;20028;-76
2023/05/28 10:46:23;;;;;;;19.30;6.05;;;23.10;93.50;;;;;;4951468;28;20542;-76
2023/05/28 10:49:18;;;;;;;17.23;5.82;;;23.10;93.40;;;;;;4963782;28;20031;-76
2023/05/28 10:52:00;;;;;;;17.90;6.82;;;23.30;93.50;;;;;;4941423;29;20051;-75
2023/05/28 10:54:45;;;;;;;15.50;6.15;;;23.50;92.70;;;;;;4955077;29;20031;-75
2023/05/28 10:57:12;;;;;;;18.37;6.37;;;23.60;91.70;;;;;;4955627;29;20050;-75
2023/05/28 10:59:41;;;;;;;21.02;6.85;;;23.50;91.70;;;;;;4950584;28;20028;-74
2023/05/28 11:02:07;;;;;;;19.38;6.43;;;23.60;91.00;;;;;;4953020;29;20046;-75
2023/05/28 11:04:35;;;;;;;20.73;6.30;;;23.70;90.70;;;;;;4951194;29;20022;-73
2023/05/28 11:07:00;;;;;;;18.52;5.60;;;23.80;90.40;;;;;;4952815;29;20019;-74
2023/05/28 11:09:26;;;;;;;18.83;6.10;;;23.80;88.80;;;;;;4956170;28;20407;-73
2023/05/28 11:11:53;;;;;;;18.20;5.75;;;23.80;87.20;;;;;;4953934;28;20118;-74
2023/05/28 11:14:18;;;;;;;20.58;6.25;;;23.80;87.20;;;;;;4958472;29;20439;-74
2023/05/28 11:16:44;;;;;;;15.82;6.40;;;23.90;86.20;;;;;;4958811;29;20054;-74
2023/05/28 11:19:11;;;;;;;27.85;7.38;;;24.00;85.40;;;;;;4956909;28;20030;-73
2023/05/28 11:21:53;;;;;;;24.50;7.15;;;23.90;85.90;;;;;;4948986;29;20038;-74
2023/05/28 11:24:18;;;;;;;15.57;6.13;;;24.10;86.10;;;;;;4957579;29;20035;-74
2023/05/28 11:26:44;;;;;;;15.60;5.40;;;24.20;85.70;;;;;;4957193;28;20023;-74
2023/05/28 11:29:12;;;;;;;19.40;6.65;;;24.40;84.80;;;;;;4950240;28;20039;-74
2023/05/28 11:31:41;;;;;;;19.10;6.07;;;24.60;84.00;;;;;;4947731;28;20035;-72
2023/05/28 11:34:08;;;;;;;24.05;6.20;;;24.70;83.50;;;;;;4955160;29;20027;-73
2023/05/28 11:36:43;;;;;;;18.73;6.28;;;24.70;81.30;;;;;;4958465;28;20015;-73
2023/05/28 11:39:10;;;;;;;18.75;6.00;;;24.70;80.90;;;;;;4955174;28;20075;-73
2023/05/28 11:41:36;;;;;;;17.92;5.35;;;24.70;79.80;;;;;;4952973;28;20038;-73
2023/05/28 11:44:02;;;;;;;18.80;5.85;;;24.70;79.20;;;;;;4948261;28;20490;-73
2023/05/28 11:46:27;;;;;;;16.63;5.88;;;24.90;79.00;;;;;;4942198;29;20027;-74
2023/05/28 11:48:53;;;;;;;17.42;6.03;;;24.90;77.60;;;;;;4949351;29;20529;-75
2023/05/28 11:51:20;;;;;;;20.63;6.47;;;24.80;76.70;;;;;;4942469;29;20050;-75
2023/05/28 11:53:46;;;;;;;19.52;6.32;;;24.80;75.50;;;;;;4957092;28;20035;-75
2023/05/28 11:56:12;;;;;;;15.93;5.53;;;24.60;75.00;;;;;;4956789;28;20073;-75
2023/05/28 11:58:43;;;;;;;17.20;5.28;;;24.50;74.20;;;;;;4943941;28;20123;-76
2023/05/28 12:01:14;;;;;;;12.50;5.03;;;24.50;74.30;;;;;;4939634;29;20124;-76
2023/05/28 12:03:39;;;;;;;16.33;5.57;;;24.70;73.80;;;;;;4938838;29;20043;-75
2023/05/28 12:06:05;;;;;;;13.07;5.25;;;24.90;73.10;;;;;;4949179;29;20557;-76
2023/05/28 12:08:31;;;;;;;12.52;5.20;;;25.10;71.60;;;;;;4954537;28;20023;-75
2023/05/28 12:11:03;;;;;;;16.60;6.07;;;25.20;72.20;;;;;;4953554;28;20039;-75
2023/05/28 12:13:33;;;;;;;14.50;5.68;;;25.30;70.90;;;;;;4939397;28;20071;-76
2023/05/28 12:16:19;;;;;;;17.83;5.97;;;25.30;70.80;;;;;;4950061;28;20564;-76
2023/05/28 12:18:45;;;;;;;16.55;6.70;;;25.30;69.50;;;;;;4955956;28;20031;-74
2023/05/28 12:21:18;;;;;;;18.42;6.60;;;25.10;70.00;;;;;;4955743;28;20509;-74
2023/05/28 12:23:44;;;;;;;19.02;6.30;;;25.10;70.00;;;;;;4949063;29;20091;-79
2023/05/28 12:26:11;;;;;;;18.83;6.70;;;25.00;70.00;;;;;;4963028;28;20034;-77
2023/05/28 12:28:39;;;;;;;17.35;6.55;;;24.90;69.40;;;;;;4962798;28;20035;-80